MDT,Max TemperatureF,Mean TemperatureF,Min TemperatureF,Max Dew PointF,MeanDew PointF,Min DewpointF,Max Humidity, Mean Humidity, Min Humidity, Max Sea Level PressureIn, Mean Sea Level PressureIn, Min Sea Level PressureIn, Max VisibilityMiles, Mean VisibilityMiles, Min VisibilityMiles, Max Wind SpeedMPH, Mean Wind SpeedMPH, Max Gust SpeedMPH,PrecipitationIn, CloudCover, Events, WindDirDegrees
2012-9-1,84,70,55,56,50,45,80,56,25,30.17,30.03,29.89,10,10,2,29,7,40,0.22,3,Rain-Thunderstorm,43
2012-9-2,84,70,57,54,48,37,78,52,20,30.22,30.02,29.92,10,10,10,14,6,23,0.05,1,,77
2012-9-3,87,72,57,47,36,17,64,35,8,30.09,30.00,29.91,10,10,10,10,5,18,0.00,0,,21
2012-9-4,89,71,54,36,25,11,51,23,6,30.04,29.97,29.91,10,10,10,17,7,24,0.00,0,,357
2012-9-5,89,70,51,25,18,6,26,15,5,30.19,30.06,29.94,10,10,10,13,5,21,0.00,0,,294
2012-9-6,84,71,60,55,33,21,83,34,11,30.14,29.93,29.80,10,10,5,22,5,37,0.18,2,Rain,12
2012-9-7,82,70,57,55,41,29,87,42,15,30.12,30.05,29.98,10,10,10,16,6,24,0.00,0,,323
2012-9-8,82,70,59,34,26,21,35,22,11,30.17,30.09,30.01,10,10,10,12,6,,0.00,0,,356
2012-9-9,84,66,50,29,25,20,39,23,10,30.13,30.04,29.93,10,10,10,9,6,,0.00,0,,62
2012-9-10,84,70,57,45,35,30,42,29,17,30.16,29.90,29.81,10,10,10,23,6,34,0.00,2,,35
2012-9-11,71,64,57,56,51,43,83,64,40,30.11,29.92,29.81,10,10,9,16,8,29,0.13,4,Rain,30
2012-9-12,82,66,51,52,31,14,86,39,9,30.14,30.06,29.97,10,10,10,22,5,29,0.00,0,,340
2012-9-13,82,68,53,23,16,5,29,16,5,30.29,30.22,30.13,10,10,10,13,6,18,0.00,0,,26
2012-9-14,82,65,48,26,20,10,36,18,7,30.28,30.19,30.10,10,10,10,12,7,,0.00,0,,118
2012-9-15,87,68,51,23,19,9,31,18,6,30.19,30.11,30.02,10,10,10,10,6,21,0.00,0,,347
2012-9-16,86,66,48,21,18,14,27,16,8,30.19,30.00,29.90,10,10,10,16,5,22,0.00,0,,15
2012-9-17,81,68,55,26,21,10,30,18,7,30.01,29.94,29.86,10,10,10,17,7,24,0.00,0,,313
2012-9-18,82,64,46,23,17,8,32,17,8,30.25,30.06,29.99,10,10,8,15,5,22,0.00,0,,311
2012-9-19,84,68,53,21,16,11,26,15,6,30.24,30.05,29.98,10,10,10,16,6,22,0.00,0,,320
2012-9-20,84,66,50,18,15,9,28,15,6,30.25,30.05,29.98,10,10,10,12,6,18,0.00,0,,352
2012-9-21,84,65,48,19,14,8,29,15,6,30.11,30.03,29.94,10,10,10,10,4,,0.00,0,,30
2012-9-22,82,66,50,18,15,10,26,15,7,30.28,30.04,29.98,10,10,10,10,4,,0.00,0,,68
2012-9-23,80,68,57,42,27,15,43,24,13,30.21,30.02,29.96,10,10,10,15,6,24,0.00,3,Rain,43
2012-9-24,73,61,50,46,39,35,82,49,28,30.10,29.97,29.90,10,10,6,20,6,32,0.00,4,Rain,57
2012-9-25,68,55,44,47,43,35,90,66,31,30.11,29.98,29.90,10,9,3,10,4,21,0.13,3,Rain,64
2012-9-26,60,54,48,50,47,44,90,81,62,30.18,30.10,29.98,10,10,6,7,2,,0.14,7,Rain,85
2012-9-27,66,55,46,48,46,43,90,71,48,30.28,30.19,30.12,10,10,10,8,3,,0.00,4,,54
2012-9-28,73,60,46,45,41,36,83,56,29,30.17,30.09,30.01,10,10,10,9,4,,0.00,0,,42
2012-9-29,77,60,46,40,36,30,68,42,21,30.14,30.09,30.04,10,10,10,15,5,22,0.00,0,,54
2012-9-30,81,66,50,32,29,25,48,27,14,30.17,30.10,30.05,10,10,10,18,9,26,0.00,0,,330